首页
METAR-TAF:

METAR-TAF

机场 :

安曼民航機場

安曼, 约旦

纬度: 31-59N, 经度: 035-59E, 海拔: 767米

当前天气观测

该预报发布于18分钟前的20:00 UTC
风速3节,风向西
温度 13°C
湿度 77%
气压 1012 hPa
能見度: 5000
散云层高于3500英尺

METAR: OJAM 142000Z 27003KT 5000 HZ SCT035 13/09 Q1012 NOSIG

时间: 22:18 (20:18 UTC)

预报

该预报发布于3小时和27分钟前的16:51 UTC
预报有效从14日的 18点(UTC)到 15日的 24点(UTC)
风速5节,风向西
能見度: 3500
少量云层高于2500英尺, 塔状积云.
多云层高于3000英尺
几率 40%
从 15日的 00点(UTC)到 15日的 08点(UTC)
风速1节,风向多变
能見度: 0700
短暂存在
从 15日的 08点(UTC)到 15日的 12点(UTC)
能見度: 3000
小阵雨

TAF: OJAM 141651Z 1418/1524 26005KT 3500 HZ FEW025TCU BKN030 PROB40 1500/1508 VRB01KT 0700 FG TEMPO 1508/1512 3000 -SHRA

超过4000个机场的气象观测和天气预报(METAR&TAF报告)。

可查询的气象台以黄色和红色小点在地图上表示。

将鼠标移到小点上方,可查看气象台名称。

然后点击查看天气观测和预报。

如需切换地图:点击带黑十字的绿色按钮放大地图;点击带横线的绿色按钮缩小地图;或者点击绿色箭头查看邻近地区的地图。


METAR-TAF: